createdAt,value
2023-08-23T00:00:33.117Z,16
2023-08-23T00:01:35.093Z,16
2023-08-23T00:02:37.160Z,16
2023-08-23T00:03:39.317Z,15.9
2023-08-23T00:04:41.387Z,15.9
2023-08-23T00:05:43.012Z,15.9
2023-08-23T00:06:44.494Z,15.9
2023-08-23T00:07:46.817Z,15.9
2023-08-23T00:08:49.729Z,15.9
2023-08-23T00:09:51.848Z,15.9
2023-08-23T00:10:53.357Z,15.9
2023-08-23T00:11:55.030Z,15.8
2023-08-23T00:12:56.600Z,15.8
2023-08-23T00:13:58.098Z,15.8
2023-08-23T00:14:59.948Z,15.8
2023-08-23T00:16:01.496Z,15.8
2023-08-23T00:17:03.235Z,15.8
2023-08-23T00:18:05.308Z,15.8
2023-08-23T00:19:07.441Z,15.8
2023-08-23T00:20:08.962Z,15.7
2023-08-23T00:21:10.635Z,15.7
2023-08-23T00:22:12.108Z,15.7
2023-08-23T00:23:13.696Z,15.7
2023-08-23T00:24:15.257Z,15.7
2023-08-23T00:25:16.812Z,15.6
2023-08-23T00:26:18.386Z,15.6
2023-08-23T00:27:19.917Z,15.6
2023-08-23T00:28:22.082Z,15.6
2023-08-23T00:29:23.762Z,15.6
2023-08-23T00:30:25.264Z,15.6
2023-08-23T00:31:27.336Z,15.6
2023-08-23T00:32:29.046Z,15.6
2023-08-23T00:33:32.295Z,15.6
2023-08-23T00:34:34.574Z,15.6
2023-08-23T00:35:36.792Z,15.5
2023-08-23T00:36:38.385Z,15.5
2023-08-23T00:37:39.873Z,15.5
2023-08-23T00:38:41.360Z,15.5
2023-08-23T00:39:42.867Z,15.5
2023-08-23T00:40:44.377Z,15.5
2023-08-23T00:41:45.996Z,15.5
2023-08-23T00:42:47.477Z,15.5
2023-08-23T00:43:48.964Z,15.5
2023-08-23T00:44:50.442Z,15.5
2023-08-23T00:45:51.961Z,15.5
2023-08-23T00:46:53.862Z,15.5
2023-08-23T00:47:55.506Z,15.5
2023-08-23T00:48:57.637Z,15.5
2023-08-23T00:49:59.147Z,15.5
2023-08-23T00:51:00.902Z,15.5
2023-08-23T00:52:02.437Z,15.5
2023-08-23T00:53:04.260Z,15.5
2023-08-23T00:54:05.755Z,15.5
2023-08-23T00:55:07.260Z,15.5
2023-08-23T00:56:08.982Z,15.5
2023-08-23T00:57:10.570Z,15.5
2023-08-23T00:58:12.064Z,15.5
2023-08-23T00:59:13.485Z,15.5
2023-08-23T01:00:15.028Z,15.5
2023-08-23T01:01:16.803Z,15.5
2023-08-23T01:02:18.733Z,15.5
2023-08-23T01:03:20.192Z,15.4
2023-08-23T01:04:21.720Z,15.4
2023-08-23T01:05:23.175Z,15.4
2023-08-23T01:06:24.894Z,15.4
2023-08-23T01:07:27.281Z,15.4
2023-08-23T01:08:28.893Z,15.4
2023-08-23T01:09:30.465Z,15.4
2023-08-23T01:10:31.931Z,15.3
2023-08-23T01:11:33.732Z,15.3
2023-08-23T01:12:35.776Z,15.3
2023-08-23T01:13:37.250Z,15.3
2023-08-23T01:14:38.752Z,15.3
2023-08-23T01:15:40.497Z,15.3
2023-08-23T01:16:42.277Z,15.3
2023-08-23T01:17:44.722Z,15.3
2023-08-23T01:18:47.904Z,15.2
2023-08-23T01:19:49.683Z,15.2
2023-08-23T01:20:51.246Z,15.2
2023-08-23T01:21:52.722Z,15.2
2023-08-23T01:22:54.311Z,15.2
2023-08-23T01:23:55.791Z,15.2
2023-08-23T01:24:57.305Z,15.2
2023-08-23T01:25:58.776Z,15.2
2023-08-23T01:27:00.276Z,15.1
2023-08-23T01:28:02.492Z,15.1
2023-08-23T01:29:05.205Z,15.1
2023-08-23T01:30:06.764Z,15.1
2023-08-23T01:31:08.317Z,15.1
2023-08-23T01:32:09.969Z,15.1
2023-08-23T01:33:11.567Z,15.1
2023-08-23T01:34:14.324Z,15.1
2023-08-23T01:35:16.155Z,15.1
2023-08-23T01:36:17.715Z,15.1
2023-08-23T01:37:19.169Z,15.1
2023-08-23T01:38:20.717Z,15.1
2023-08-23T01:39:22.256Z,15.1
2023-08-23T01:40:26.499Z,15.1
2023-08-23T01:41:28.005Z,15.1
2023-08-23T01:42:29.800Z,15.1
2023-08-23T01:43:31.278Z,15.1
2023-08-23T01:44:32.875Z,15.1
2023-08-23T01:45:34.454Z,15.1
2023-08-23T01:46:36.557Z,15.1
2023-08-23T01:47:38.084Z,15.1
2023-08-23T01:48:40.126Z,15.1
2023-08-23T01:49:41.604Z,15
2023-08-23T01:50:43.077Z,15
2023-08-23T01:51:44.545Z,15
2023-08-23T01:52:45.990Z,15
2023-08-23T01:53:47.717Z,15
2023-08-23T01:54:49.186Z,14.9
2023-08-23T01:55:51.233Z,14.9
2023-08-23T01:56:52.937Z,14.9
2023-08-23T01:57:54.505Z,14.9
2023-08-23T01:58:55.967Z,14.9
2023-08-23T01:59:57.435Z,14.8
2023-08-23T02:00:58.955Z,14.8
2023-08-23T02:02:01.229Z,14.8
2023-08-23T02:03:03.152Z,14.8
2023-08-23T02:04:05.339Z,14.8
2023-08-23T02:05:06.822Z,14.8
2023-08-23T02:06:08.299Z,14.8
2023-08-23T02:07:09.758Z,14.7
2023-08-23T02:08:11.279Z,14.7
2023-08-23T02:09:13.008Z,14.7
2023-08-23T02:10:14.449Z,14.7
2023-08-23T02:11:16.018Z,14.7
2023-08-23T02:12:17.525Z,14.7
2023-08-23T02:13:19.177Z,14.7
2023-08-23T02:14:20.624Z,14.7
2023-08-23T02:15:22.288Z,14.7
2023-08-23T02:16:23.912Z,14.7
2023-08-23T02:17:25.369Z,14.7
2023-08-23T02:18:27.132Z,14.7
2023-08-23T02:19:29.357Z,14.6
2023-08-23T02:20:30.930Z,14.6
2023-08-23T02:21:33.170Z,14.6
2023-08-23T02:22:34.803Z,14.6
2023-08-23T02:23:36.319Z,14.6
2023-08-23T02:24:38.501Z,14.6
2023-08-23T02:25:39.985Z,14.6
2023-08-23T02:26:41.491Z,14.5
2023-08-23T02:27:42.983Z,14.5
2023-08-23T02:28:44.775Z,14.5
2023-08-23T02:29:46.434Z,14.5
2023-08-23T02:30:47.934Z,14.4
2023-08-23T02:31:49.760Z,14.4
2023-08-23T02:32:51.296Z,14.4
2023-08-23T02:33:53.235Z,14.4
2023-08-23T02:34:54.730Z,14.4
2023-08-23T02:35:56.194Z,14.4
2023-08-23T02:36:57.664Z,14.4
2023-08-23T02:37:59.136Z,14.4
2023-08-23T02:39:00.752Z,14.3
2023-08-23T02:40:02.522Z,14.3
2023-08-23T02:41:04.031Z,14.3
2023-08-23T02:42:05.538Z,14.3
2023-08-23T02:43:07.139Z,14.3
2023-08-23T02:44:08.638Z,14.3
2023-08-23T02:45:10.129Z,14.3
2023-08-23T02:46:11.611Z,14.2
2023-08-23T02:47:13.317Z,14.2
2023-08-23T02:48:14.826Z,14.2
2023-08-23T02:49:17.904Z,14.2
2023-08-23T02:50:20.052Z,14.2
2023-08-23T02:51:21.683Z,14.2
2023-08-23T02:52:23.147Z,14.2
2023-08-23T02:53:24.619Z,14.2
2023-08-23T02:54:26.950Z,14.2
2023-08-23T02:55:28.584Z,14.2
2023-08-23T02:56:30.224Z,14.2
2023-08-23T02:57:31.694Z,14.2
2023-08-23T02:58:33.215Z,14.2
2023-08-23T02:59:34.786Z,14.2
2023-08-23T03:00:36.568Z,14.2
2023-08-23T03:01:38.488Z,14.2
2023-08-23T03:02:40.013Z,14.2
2023-08-23T03:03:42.099Z,14.2
2023-08-23T03:04:43.666Z,14.2
2023-08-23T03:05:45.381Z,14.2
2023-08-23T03:06:46.828Z,14.2
2023-08-23T03:07:48.941Z,14.2
2023-08-23T03:08:50.864Z,14.2
2023-08-23T03:09:52.363Z,14.2
2023-08-23T03:10:54.120Z,14.2
2023-08-23T03:11:55.675Z,14.3
2023-08-23T03:12:57.156Z,14.3
2023-08-23T03:13:58.636Z,14.3
2023-08-23T03:15:00.312Z,14.3
2023-08-23T03:16:01.916Z,14.3
2023-08-23T03:17:03.744Z,14.3
2023-08-23T03:18:06.439Z,14.3
2023-08-23T03:19:08.292Z,14.3
2023-08-23T03:20:09.758Z,14.3
2023-08-23T03:21:11.248Z,14.3
2023-08-23T03:22:13.210Z,14.3
2023-08-23T03:23:14.695Z,14.3
2023-08-23T03:24:16.143Z,14.3
2023-08-23T03:25:17.708Z,14.4
2023-08-23T03:26:19.266Z,14.4
2023-08-23T03:27:20.723Z,14.3
2023-08-23T03:28:22.230Z,14.3
2023-08-23T03:29:23.716Z,14.3
2023-08-23T03:30:25.213Z,14.3
2023-08-23T03:31:27.009Z,14.3
2023-08-23T03:32:29.380Z,14.3
2023-08-23T03:33:31.103Z,14.3
2023-08-23T03:34:32.638Z,14.3
2023-08-23T03:35:34.135Z,14.3
2023-08-23T03:36:35.817Z,14.3
2023-08-23T03:37:37.290Z,14.3
2023-08-23T03:38:38.761Z,14.4
2023-08-23T03:39:40.245Z,14.4
2023-08-23T03:40:41.714Z,14.4
2023-08-23T03:41:43.644Z,14.4
2023-08-23T03:42:45.076Z,14.4
2023-08-23T03:43:46.561Z,14.4
2023-08-23T03:44:48.182Z,14.4
2023-08-23T03:45:49.759Z,14.4
2023-08-23T03:46:51.632Z,14.4
2023-08-23T03:47:53.665Z,14.4
2023-08-23T03:48:55.791Z,14.5
2023-08-23T03:49:57.456Z,14.5
2023-08-23T03:50:58.957Z,14.5
2023-08-23T03:52:00.412Z,14.5
2023-08-23T03:53:01.876Z,14.5
2023-08-23T03:54:06.215Z,14.5
2023-08-23T03:55:08.107Z,14.6
2023-08-23T03:56:10.781Z,14.6
2023-08-23T03:57:12.291Z,14.6
2023-08-23T03:58:13.845Z,14.6
2023-08-23T03:59:15.317Z,14.6
2023-08-23T04:00:16.823Z,14.6
2023-08-23T04:01:18.713Z,14.6
2023-08-23T04:02:20.973Z,14.6
2023-08-23T04:03:23.113Z,14.7
2023-08-23T04:04:26.470Z,14.7
2023-08-23T04:05:28.771Z,14.7
2023-08-23T04:06:30.504Z,14.7
2023-08-23T04:07:31.980Z,14.7
2023-08-23T04:08:33.501Z,14.7
2023-08-23T04:09:35.001Z,14.7
2023-08-23T04:10:36.465Z,14.7
2023-08-23T04:11:37.904Z,14.7
2023-08-23T04:12:39.551Z,14.7
2023-08-23T04:13:41.195Z,14.7
2023-08-23T04:14:43.235Z,14.7
2023-08-23T04:15:45.343Z,14.7
2023-08-23T04:16:46.924Z,14.7
2023-08-23T04:17:49.866Z,14.7
2023-08-23T04:18:53.256Z,14.7
2023-08-23T04:19:54.791Z,14.7
2023-08-23T04:20:56.262Z,14.7
2023-08-23T04:21:57.732Z,14.7
2023-08-23T04:22:59.217Z,14.7
2023-08-23T04:24:01.131Z,14.7
2023-08-23T04:25:02.619Z,14.8
2023-08-23T04:26:04.144Z,14.8
2023-08-23T04:27:05.636Z,14.8
2023-08-23T04:28:07.312Z,14.8
2023-08-23T04:29:08.783Z,14.8
2023-08-23T04:30:10.336Z,14.8
2023-08-23T04:31:11.915Z,14.8
2023-08-23T04:32:13.729Z,14.8
2023-08-23T04:33:16.767Z,14.8
2023-08-23T04:34:18.282Z,14.8
2023-08-23T04:35:19.791Z,14.9
2023-08-23T04:36:21.279Z,14.9
2023-08-23T04:37:22.745Z,14.9
2023-08-23T04:38:24.331Z,14.9
2023-08-23T04:39:26.265Z,14.9
2023-08-23T04:40:28.788Z,14.9
2023-08-23T04:41:30.366Z,14.9
2023-08-23T04:42:32.592Z,14.9
2023-08-23T04:43:34.789Z,14.9
2023-08-23T04:44:36.536Z,14.9
2023-08-23T04:45:38.184Z,14.9
2023-08-23T04:46:40.326Z,14.9
2023-08-23T04:47:42.276Z,15
2023-08-23T04:48:44.360Z,15
2023-08-23T04:49:45.906Z,15
2023-08-23T04:50:47.592Z,15
2023-08-23T04:51:49.105Z,15
2023-08-23T04:52:50.587Z,15
2023-08-23T04:53:52.051Z,15
2023-08-23T04:54:53.614Z,15
2023-08-23T04:55:55.083Z,15
2023-08-23T04:56:56.551Z,15
2023-08-23T04:57:58.088Z,15
2023-08-23T04:58:59.730Z,15
2023-08-23T05:00:01.188Z,15
2023-08-23T05:01:03.406Z,15
2023-08-23T05:02:05.597Z,15
2023-08-23T05:03:07.155Z,15
2023-08-23T05:04:09.320Z,15
2023-08-23T05:05:10.868Z,15
2023-08-23T05:06:12.755Z,15
2023-08-23T05:07:14.211Z,15
2023-08-23T05:08:15.745Z,15
2023-08-23T05:09:17.227Z,15
2023-08-23T05:10:18.741Z,15
2023-08-23T05:11:23.008Z,15
2023-08-23T05:12:24.482Z,15
2023-08-23T05:13:25.947Z,15
2023-08-23T05:14:27.586Z,15
2023-08-23T05:15:29.081Z,15
2023-08-23T05:16:30.569Z,15
2023-08-23T05:17:32.212Z,15
2023-08-23T05:18:34.302Z,15
2023-08-23T05:19:37.763Z,15
2023-08-23T05:20:39.244Z,15
2023-08-23T05:21:40.661Z,15
2023-08-23T05:22:42.121Z,15.1
2023-08-23T05:23:43.612Z,15.1
2023-08-23T05:24:45.079Z,15.1
2023-08-23T05:25:46.547Z,15.1
2023-08-23T05:26:48.038Z,15.1
2023-08-23T05:27:50.215Z,15.1
2023-08-23T05:28:52.311Z,15.2
2023-08-23T05:29:54.026Z,15.2
2023-08-23T05:30:55.544Z,15.2
2023-08-23T05:31:57.038Z,15.3
2023-08-23T05:32:58.753Z,15.3
2023-08-23T05:34:01.608Z,15.3
2023-08-23T05:35:03.042Z,15.3
2023-08-23T05:36:05.161Z,15.3
2023-08-23T05:37:06.742Z,15.4
2023-08-23T05:38:08.240Z,15.4
2023-08-23T05:39:09.785Z,15.4
2023-08-23T05:40:11.224Z,15.4
2023-08-23T05:41:12.683Z,15.5
2023-08-23T05:42:14.235Z,15.5
2023-08-23T05:43:16.940Z,15.5
2023-08-23T05:44:18.563Z,15.5
2023-08-23T05:45:20.231Z,15.5
2023-08-23T05:46:22.197Z,15.5
2023-08-23T05:47:23.847Z,15.5
2023-08-23T05:48:26.176Z,15.5
2023-08-23T05:49:27.705Z,15.5
2023-08-23T05:50:29.260Z,15.5
2023-08-23T05:51:30.744Z,15.6
2023-08-23T05:52:32.244Z,15.6
2023-08-23T05:53:33.889Z,15.6
2023-08-23T05:54:35.540Z,15.6
2023-08-23T05:55:36.994Z,15.6
2023-08-23T05:56:38.474Z,15.6
2023-08-23T05:57:40.167Z,15.6
2023-08-23T05:58:41.641Z,15.7
2023-08-23T05:59:43.089Z,15.7
2023-08-23T06:00:44.793Z,15.7
2023-08-23T06:01:46.967Z,15.7
2023-08-23T06:02:48.665Z,15.7
2023-08-23T06:03:50.495Z,15.7
2023-08-23T06:04:52.776Z,15.8
2023-08-23T06:05:54.225Z,15.8
2023-08-23T06:06:55.929Z,15.8
2023-08-23T06:07:57.967Z,15.8
2023-08-23T06:08:59.431Z,15.8
2023-08-23T06:10:00.888Z,15.9
2023-08-23T06:11:02.391Z,15.9
2023-08-23T06:12:03.996Z,15.9
2023-08-23T06:13:05.561Z,15.9
2023-08-23T06:14:07.137Z,16
2023-08-23T06:15:08.589Z,16
2023-08-23T06:16:10.423Z,16
2023-08-23T06:17:12.494Z,16
2023-08-23T06:18:14.185Z,16.1
2023-08-23T06:19:16.497Z,16.1
2023-08-23T06:20:18.034Z,16.1
2023-08-23T06:21:20.672Z,16.2
2023-08-23T06:22:22.159Z,16.2
2023-08-23T06:23:23.605Z,16.2
2023-08-23T06:24:25.050Z,16.3
2023-08-23T06:25:26.550Z,16.3
2023-08-23T06:26:28.133Z,16.4
2023-08-23T06:27:29.590Z,16.4
2023-08-23T06:28:31.057Z,16.5
2023-08-23T06:29:32.525Z,16.5
2023-08-23T06:30:34.201Z,16.6
2023-08-23T06:31:35.995Z,16.6
2023-08-23T06:32:37.557Z,16.6
2023-08-23T06:33:39.583Z,16.7
2023-08-23T06:34:41.149Z,16.8
2023-08-23T06:35:42.750Z,16.8
2023-08-23T06:36:44.213Z,16.9
2023-08-23T06:37:46.733Z,16.9
2023-08-23T06:38:50.192Z,17
2023-08-23T06:39:52.038Z,17.1
2023-08-23T06:40:53.761Z,17.2
2023-08-23T06:41:55.277Z,17.3
2023-08-23T06:42:56.779Z,17.4
2023-08-23T06:43:58.286Z,17.5
2023-08-23T06:44:59.898Z,17.6
2023-08-23T06:46:01.701Z,17.8
2023-08-23T06:47:03.594Z,17.9
2023-08-23T06:48:05.332Z,18
2023-08-23T06:49:07.656Z,18.1
2023-08-23T06:50:15.616Z,18.2
2023-08-23T06:51:19.021Z,18.3
2023-08-23T06:52:20.505Z,18.4
2023-08-23T06:53:22.124Z,18.5
2023-08-23T06:54:23.609Z,18.6
2023-08-23T06:55:25.081Z,18.8
2023-08-23T06:56:26.649Z,18.9
2023-08-23T06:57:28.175Z,19
2023-08-23T06:58:29.718Z,19.1
2023-08-23T06:59:31.370Z,19.3
2023-08-23T07:00:32.952Z,19.3
2023-08-23T07:01:34.813Z,19.4
2023-08-23T07:02:36.755Z,19.4
2023-08-23T07:03:39.043Z,19.5
2023-08-23T07:04:41.512Z,19.5
2023-08-23T07:05:43.008Z,19.6
2023-08-23T07:06:44.572Z,19.6
2023-08-23T07:07:47.203Z,19.7
2023-08-23T07:08:50.395Z,19.7
2023-08-23T07:09:51.875Z,19.7
2023-08-23T07:10:53.461Z,19.7
2023-08-23T07:11:55.331Z,19.7
2023-08-23T07:12:56.856Z,19.6
2023-08-23T07:13:58.367Z,19.5
2023-08-23T07:15:00.152Z,19.5
2023-08-23T07:16:02.011Z,19.4
2023-08-23T07:17:03.977Z,19.3
2023-08-23T07:18:05.832Z,19.1
2023-08-23T07:19:07.903Z,19
2023-08-23T07:20:09.421Z,19
2023-08-23T07:21:11.615Z,19
2023-08-23T07:22:13.302Z,18.9
2023-08-23T07:23:14.790Z,18.9
2023-08-23T07:24:16.259Z,18.8
2023-08-23T07:25:17.711Z,18.8
2023-08-23T07:26:19.184Z,18.8
2023-08-23T07:27:20.790Z,18.7
2023-08-23T07:28:22.270Z,18.7
2023-08-23T07:29:23.797Z,18.8
2023-08-23T07:30:25.400Z,18.8
2023-08-23T07:31:27.437Z,18.9
2023-08-23T07:32:29.104Z,18.9
2023-08-23T07:33:30.831Z,18.9
2023-08-23T07:34:32.532Z,19
2023-08-23T07:35:34.142Z,19.1
2023-08-23T07:36:35.821Z,19.2
2023-08-23T07:37:37.754Z,19.3
2023-08-23T07:38:39.245Z,19.4
2023-08-23T07:39:45.588Z,19.5
2023-08-23T07:40:47.187Z,19.6
2023-08-23T07:41:48.734Z,19.6
2023-08-23T07:42:50.203Z,19.7
2023-08-23T07:43:51.738Z,19.8
2023-08-23T07:44:53.313Z,19.9
2023-08-23T07:45:55.116Z,19.9
2023-08-23T07:46:57.446Z,20
2023-08-23T07:47:59.104Z,20.1
2023-08-23T07:49:01.405Z,20.2
2023-08-23T07:50:03.201Z,20.3
2023-08-23T07:51:04.698Z,20.4
2023-08-23T07:52:06.192Z,20.5
2023-08-23T07:53:07.830Z,20.6
2023-08-23T07:54:09.350Z,20.7
2023-08-23T07:55:10.825Z,20.8
2023-08-23T07:56:16.073Z,21
2023-08-23T07:57:18.283Z,21
2023-08-23T07:58:20.253Z,21.1
2023-08-23T07:59:22.878Z,21.2
2023-08-23T08:00:24.372Z,21.2
2023-08-23T08:01:26.269Z,21.3
2023-08-23T08:02:28.361Z,21.3
2023-08-23T08:03:30.821Z,21.4
2023-08-23T08:04:32.943Z,21.4
2023-08-23T08:05:35.960Z,21.5
2023-08-23T08:06:37.446Z,21.6
2023-08-23T08:08:09.467Z,21.8
2023-08-23T08:09:12.385Z,21.9
2023-08-23T08:10:13.884Z,22
2023-08-23T08:11:15.584Z,22.2
2023-08-23T08:12:17.249Z,22.3
2023-08-23T08:13:19.139Z,22.4
2023-08-23T08:14:20.682Z,22.5
2023-08-23T08:15:22.140Z,22.6
2023-08-23T08:16:23.754Z,22.7
2023-08-23T08:17:26.293Z,22.7
2023-08-23T08:18:28.149Z,22.8
2023-08-23T08:19:29.645Z,22.8
2023-08-23T08:20:31.192Z,22.8
2023-08-23T08:21:32.954Z,22.8
2023-08-23T08:22:35.283Z,22.8
2023-08-23T08:23:37.886Z,22.8
2023-08-23T08:24:39.422Z,22.8
2023-08-23T08:25:41.124Z,22.9
2023-08-23T08:26:43.293Z,22.9
2023-08-23T08:27:44.779Z,23
2023-08-23T08:28:46.338Z,23
2023-08-23T08:29:48.022Z,23
2023-08-23T08:30:49.491Z,23
2023-08-23T08:31:52.136Z,23.1
2023-08-23T08:32:54.504Z,23.1
2023-08-23T08:33:56.740Z,23.1
2023-08-23T08:34:58.240Z,23.2
2023-08-23T08:35:59.913Z,23.3
2023-08-23T08:37:01.647Z,23.4
2023-08-23T08:38:03.222Z,23.5
2023-08-23T08:39:04.817Z,23.5
2023-08-23T08:40:06.393Z,23.6
2023-08-23T08:41:08.823Z,23.6
2023-08-23T08:42:10.376Z,23.6
2023-08-23T08:43:11.884Z,23.7
2023-08-23T08:44:13.446Z,23.8
2023-08-23T08:45:15.116Z,23.8
2023-08-23T08:46:16.907Z,23.9
2023-08-23T08:47:19.044Z,23.9
2023-08-23T08:48:20.898Z,23.9
2023-08-23T08:49:22.731Z,23.9
2023-08-23T08:50:24.777Z,23.9
2023-08-23T08:51:26.463Z,23.9
2023-08-23T08:52:27.970Z,23.9
2023-08-23T08:53:29.481Z,23.9
2023-08-23T08:54:31.102Z,23.9
2023-08-23T08:55:32.664Z,23.9
2023-08-23T08:56:34.129Z,23.9
2023-08-23T08:57:38.281Z,23.9
2023-08-23T08:58:39.772Z,23.9
2023-08-23T08:59:41.250Z,23.9
2023-08-23T09:00:42.871Z,23.9
2023-08-23T09:01:44.525Z,23.9
2023-08-23T09:02:46.937Z,23.9
2023-08-23T09:03:49.819Z,23.9
2023-08-23T09:04:52.330Z,23.9
2023-08-23T09:05:53.835Z,24
2023-08-23T09:06:55.592Z,24
2023-08-23T09:07:57.046Z,24
2023-08-23T09:08:58.589Z,24.1
2023-08-23T09:10:00.066Z,24.1
2023-08-23T09:11:02.064Z,24.1
2023-08-23T09:12:03.993Z,24.1
2023-08-23T09:13:05.470Z,24.2
2023-08-23T09:14:07.414Z,24.2
2023-08-23T09:15:08.904Z,24.3
2023-08-23T09:16:10.881Z,24.3
2023-08-23T09:17:12.983Z,24.3
2023-08-23T09:18:15.245Z,24.3
2023-08-23T09:19:17.387Z,24.3
2023-08-23T09:20:19.005Z,24.2
2023-08-23T09:21:20.539Z,24.2
2023-08-23T09:22:26.004Z,24.2
2023-08-23T09:23:28.039Z,24.2
2023-08-23T09:24:29.539Z,24.2
2023-08-23T09:25:31.290Z,24.1
2023-08-23T09:26:33.095Z,24.1
2023-08-23T09:27:38.592Z,24.1
2023-08-23T09:28:40.202Z,24.1
2023-08-23T09:29:41.799Z,24.2
2023-08-23T09:30:43.324Z,24.3
2023-08-23T09:31:44.926Z,24.4
2023-08-23T09:32:47.255Z,24.5
2023-08-23T09:33:49.530Z,24.6
2023-08-23T09:34:50.982Z,24.7
2023-08-23T09:35:52.458Z,24.7
2023-08-23T09:36:58.172Z,24.8
2023-08-23T09:38:00.308Z,24.9
2023-08-23T09:39:01.784Z,25
2023-08-23T09:40:03.478Z,25.1
2023-08-23T09:41:05.672Z,25.2
2023-08-23T09:42:07.630Z,25.3
2023-08-23T09:43:09.112Z,25.4
2023-08-23T09:44:10.718Z,25.5
2023-08-23T09:45:12.652Z,25.5
2023-08-23T09:46:14.836Z,25.5
2023-08-23T09:47:17.515Z,25.6
2023-08-23T09:48:20.526Z,25.6
2023-08-23T09:49:22.515Z,25.7
2023-08-23T09:50:24.064Z,25.8
2023-08-23T09:51:25.692Z,25.9
2023-08-23T09:52:27.467Z,26
2023-08-23T09:53:29.285Z,26.2
2023-08-23T09:54:53.732Z,26.3
2023-08-23T09:56:17.245Z,26.4
2023-08-23T09:57:18.849Z,26.4
2023-08-23T09:58:20.617Z,26.4
2023-08-23T09:59:22.124Z,26.4
2023-08-23T10:00:24.417Z,26.5
2023-08-23T10:01:34.208Z,26.5
2023-08-23T10:02:36.887Z,26.5
2023-08-23T10:03:39.898Z,26.5
2023-08-23T10:04:44.088Z,26.5
2023-08-23T10:05:45.603Z,26.5
2023-08-23T10:06:47.070Z,26.6
2023-08-23T10:07:49.218Z,26.6
2023-08-23T10:08:52.061Z,26.7
2023-08-23T10:09:53.549Z,26.8
2023-08-23T10:10:55.046Z,26.8
2023-08-23T10:11:56.654Z,26.9
2023-08-23T10:12:58.267Z,26.8
2023-08-23T10:13:59.768Z,26.8
2023-08-23T10:15:01.659Z,26.8
2023-08-23T10:16:03.182Z,26.8
2023-08-23T10:17:04.663Z,26.8
2023-08-23T10:18:06.431Z,26.8
2023-08-23T10:19:08.390Z,26.8
2023-08-23T10:20:09.892Z,26.8
2023-08-23T10:21:11.427Z,26.8
2023-08-23T10:22:12.881Z,26.8
2023-08-23T10:23:14.642Z,26.8
2023-08-23T10:24:16.229Z,26.8
2023-08-23T10:25:18.859Z,26.8
2023-08-23T10:26:20.521Z,26.7
2023-08-23T10:27:22.020Z,26.7
2023-08-23T10:28:23.608Z,26.7
2023-08-23T10:29:25.146Z,26.6
2023-08-23T10:30:26.737Z,26.6
2023-08-23T10:31:28.897Z,26.6
2023-08-23T10:32:30.955Z,26.6
2023-08-23T10:33:34.941Z,26.6
2023-08-23T10:34:37.453Z,26.7
2023-08-23T10:35:39.020Z,26.7
2023-08-23T10:36:40.686Z,26.8
2023-08-23T10:37:42.155Z,26.8
2023-08-23T10:38:43.719Z,26.9
2023-08-23T10:39:45.368Z,26.9
2023-08-23T10:40:46.924Z,26.9
2023-08-23T10:41:48.676Z,27
2023-08-23T10:42:50.640Z,27
2023-08-23T10:43:52.321Z,27
2023-08-23T10:44:53.753Z,27
2023-08-23T10:45:55.472Z,27
2023-08-23T10:46:57.318Z,27
2023-08-23T10:47:58.986Z,27
2023-08-23T10:49:01.120Z,27
2023-08-23T10:50:02.596Z,27
2023-08-23T10:51:04.184Z,26.9
2023-08-23T10:52:06.314Z,26.9
2023-08-23T10:53:07.783Z,26.9
2023-08-23T10:54:09.263Z,26.9
2023-08-23T10:55:10.965Z,26.8
2023-08-23T10:56:12.440Z,26.8
2023-08-23T10:57:14.796Z,26.7
2023-08-23T10:58:16.335Z,26.6
2023-08-23T10:59:18.071Z,26.6
2023-08-23T11:00:19.550Z,26.5
2023-08-23T11:01:21.160Z,26.5
2023-08-23T11:02:23.107Z,26.4
2023-08-23T11:03:25.158Z,26.3
2023-08-23T11:04:27.104Z,26.3
2023-08-23T11:05:28.585Z,26.2
2023-08-23T11:06:30.447Z,26.2
2023-08-23T11:07:31.894Z,26.1
2023-08-23T11:08:33.525Z,26.1
2023-08-23T11:09:35.652Z,26
2023-08-23T11:10:37.901Z,26
2023-08-23T11:11:39.626Z,26
2023-08-23T11:12:41.359Z,26
2023-08-23T11:13:42.899Z,26
2023-08-23T11:14:45.498Z,26
2023-08-23T11:15:47.447Z,26
2023-08-23T11:16:49.123Z,26
2023-08-23T11:17:52.071Z,26.1
2023-08-23T11:18:54.155Z,26.1
2023-08-23T11:19:55.693Z,26.1
2023-08-23T11:20:57.193Z,26.1
2023-08-23T11:21:58.677Z,26.1
2023-08-23T11:23:00.139Z,26.1
2023-08-23T11:24:01.654Z,26.1
2023-08-23T11:25:03.192Z,26.1
2023-08-23T11:26:05.350Z,26.2
2023-08-23T11:27:06.953Z,26.2
2023-08-23T11:28:08.433Z,26.3
2023-08-23T11:29:10.030Z,26.4
2023-08-23T11:30:11.819Z,26.5
2023-08-23T11:31:13.344Z,26.5
2023-08-23T11:32:15.250Z,26.6
2023-08-23T11:33:16.989Z,26.7
2023-08-23T11:34:19.056Z,26.7
2023-08-23T11:35:23.369Z,26.8
2023-08-23T11:36:25.295Z,26.8
2023-08-23T11:37:26.758Z,26.9
2023-08-23T11:38:28.219Z,26.9
2023-08-23T11:39:29.908Z,26.9
2023-08-23T11:40:31.338Z,26.9
2023-08-23T11:41:33.012Z,26.8
2023-08-23T11:42:34.687Z,26.8
2023-08-23T11:43:36.160Z,26.8
2023-08-23T11:44:37.664Z,26.7
2023-08-23T11:45:39.631Z,26.7
2023-08-23T11:46:42.050Z,26.7
2023-08-23T11:47:43.548Z,26.7
2023-08-23T11:48:45.698Z,26.6
2023-08-23T11:49:47.354Z,26.6
2023-08-23T11:50:49.020Z,26.6
2023-08-23T11:51:53.543Z,26.6
2023-08-23T11:52:55.082Z,26.6
2023-08-23T11:53:56.931Z,26.6
2023-08-23T11:54:58.501Z,26.6
2023-08-23T11:56:00.165Z,26.7
2023-08-23T11:57:02.512Z,26.7
2023-08-23T11:58:04.645Z,26.8
2023-08-23T11:59:06.375Z,26.8
2023-08-23T12:00:07.950Z,26.9
2023-08-23T12:01:09.953Z,26.9
2023-08-23T12:02:11.683Z,27
2023-08-23T12:03:15.149Z,27
2023-08-23T12:04:17.352Z,27
2023-08-23T12:05:18.855Z,27.1
2023-08-23T12:06:20.490Z,27.1
2023-08-23T12:07:21.947Z,27.2
2023-08-23T12:08:23.463Z,27.2
2023-08-23T12:09:27.564Z,27.2
2023-08-23T12:10:29.136Z,27.2
2023-08-23T12:11:31.093Z,27.2
2023-08-23T12:12:32.930Z,27.2
2023-08-23T12:13:34.582Z,27.3
2023-08-23T12:14:36.263Z,27.3
2023-08-23T12:15:37.929Z,27.4
2023-08-23T12:16:39.948Z,27.4
2023-08-23T12:17:41.446Z,27.5
2023-08-23T12:18:43.382Z,27.5
2023-08-23T12:19:44.874Z,27.5
2023-08-23T12:20:48.635Z,27.6
2023-08-23T12:21:50.167Z,27.6
2023-08-23T12:22:51.724Z,27.7
2023-08-23T12:23:53.305Z,27.7
2023-08-23T12:24:54.920Z,27.7
2023-08-23T12:25:56.475Z,27.7
2023-08-23T12:26:57.935Z,27.8
2023-08-23T12:27:59.526Z,27.8
2023-08-23T12:29:01.119Z,27.8
2023-08-23T12:30:03.041Z,27.9
2023-08-23T12:31:04.830Z,27.9
2023-08-23T12:32:07.185Z,27.9
2023-08-23T12:33:09.047Z,28
2023-08-23T12:34:11.258Z,28
2023-08-23T12:35:12.748Z,28
2023-08-23T12:36:14.792Z,28
2023-08-23T12:37:16.393Z,28
2023-08-23T12:38:17.873Z,28
2023-08-23T12:39:19.365Z,28
2023-08-23T12:40:21.738Z,28
2023-08-23T12:41:23.232Z,28
2023-08-23T12:42:24.735Z,28
2023-08-23T12:43:26.578Z,28
2023-08-23T12:44:28.736Z,28
2023-08-23T12:45:30.816Z,28
2023-08-23T12:46:32.887Z,28.1
2023-08-23T12:47:34.495Z,28.1
2023-08-23T12:48:36.552Z,28.1
2023-08-23T12:49:38.430Z,28.1
2023-08-23T12:50:40.130Z,28.1
2023-08-23T12:51:41.586Z,28.1
2023-08-23T12:52:43.086Z,28.1
2023-08-23T12:53:44.538Z,28.1
2023-08-23T12:54:46.356Z,28.1
2023-08-23T12:55:47.841Z,28.1
2023-08-23T12:56:49.310Z,28.1
2023-08-23T12:57:51.249Z,28.1
2023-08-23T12:58:56.871Z,28.1
2023-08-23T12:59:59.023Z,28.1
2023-08-23T13:01:02.828Z,28.1
2023-08-23T13:02:05.023Z,28.1
2023-08-23T13:03:07.287Z,28.1
2023-08-23T13:04:09.439Z,28.1
2023-08-23T13:05:11.392Z,28.1
2023-08-23T13:06:12.836Z,28.1
2023-08-23T13:07:14.357Z,28.1
2023-08-23T13:08:16.097Z,28.1
2023-08-23T13:09:17.592Z,28.1
2023-08-23T13:10:20.182Z,28.2
2023-08-23T13:11:21.749Z,28.2
2023-08-23T13:12:23.278Z,28.2
2023-08-23T13:13:25.529Z,28.2
2023-08-23T13:14:27.173Z,28.2
2023-08-23T13:15:29.081Z,28.2
2023-08-23T13:16:31.315Z,28.1
2023-08-23T13:17:32.990Z,28.1
2023-08-23T13:18:35.717Z,28.1
2023-08-23T13:19:37.303Z,28.1
2023-08-23T13:20:38.867Z,28.1
2023-08-23T13:21:40.365Z,28
2023-08-23T13:22:41.956Z,28.1
2023-08-23T13:23:43.529Z,28.1
2023-08-23T13:24:45.017Z,28.1
2023-08-23T13:25:46.556Z,28.1
2023-08-23T13:26:48.102Z,28
2023-08-23T13:27:50.385Z,28
2023-08-23T13:28:54.763Z,28
2023-08-23T13:29:57.025Z,28
2023-08-23T13:30:58.763Z,28
2023-08-23T13:32:08.157Z,28
2023-08-23T13:33:29.629Z,27.9
2023-08-23T13:34:31.206Z,27.9
2023-08-23T13:35:32.688Z,27.9
2023-08-23T13:36:34.182Z,27.9
2023-08-23T13:37:40.751Z,27.9
2023-08-23T13:38:42.318Z,27.9
2023-08-23T13:39:43.872Z,27.9
2023-08-23T13:40:45.450Z,27.9
2023-08-23T13:41:47.001Z,27.9
2023-08-23T13:43:10.004Z,28
2023-08-23T13:44:18.982Z,28
2023-08-23T13:45:20.627Z,28
2023-08-23T13:46:22.299Z,28
2023-08-23T13:47:24.488Z,28.1
2023-08-23T13:48:26.339Z,28.1
2023-08-23T13:49:28.605Z,28.1
2023-08-23T13:50:30.340Z,28.1
2023-08-23T13:51:32.360Z,28.1
2023-08-23T13:52:33.992Z,28.2